Kenvir, Kentucky
Current Conditions -  °F | °C
As of 6:55 PM on Wednesday 22 Oct 2014 (Local Time) from KI35 Reporting Station
Overcast Overcast  
Wind Chill: 46°   Ceiling: 2600
Heat Index: 46°   Visibility: 10mi
Dew Point: 39°   Wind: 3mph
Humidity: 76%   Direction: 350°N
Pressure: 30.23"   Gusts: NA
Location:  36.85°N, 83.16°W
Report Text: KI35 222255Z AUTO 35003KT 10SM OVC026 08/04 A3023 RMK AO1
Loading
Personal Weather Stations






























Interactive Weather Map
Tropical Storm Tracking
New forecast layout! Learn more

10-Day Weather Forecast

Advertisements
Track Severe Weather on mobile